Time;durP1;ratioP1;P1;durP2;ratioP2;P2;SDS_P1;SDS_P2;PMS_P1;PMS_P2;Temp;Humidity;BMP_temperature;BMP_pressure;BME280_temperature;BME280_humidity;BME280_pressure;Samples;Min_cycle;Max_cycle;Signal;HPM_P1;HPM_P2
2021/08/13 00:16:46;;;;;;;;;;;;;;;;;;;;;
2021/08/13 00:30:36;;;;;;;;;;;;;;;;;;;;;
2021/08/13 00:47:13;;;;;;;12.73;9.40;;;19.10;99.90;;;;;;5920989;24;20013;-94
2021/08/13 00:54:09;;;;;;;;;;;;;;;;;;;;;
2021/08/13 00:57:41;;;;;;;14.10;9.50;;;19.00;99.90;;;;;;5918403;24;20085;-93
2021/08/13 01:00:38;;;;;;;12.10;8.98;;;18.90;99.90;;;;;;5897177;24;20513;-93
2021/08/13 01:04:19;;;;;;;;;;;;;;;;;;;;;
2021/08/13 01:07:42;;;;;;;10.30;8.33;;;18.80;99.90;;;;;;5813410;24;20073;-94
2021/08/13 01:11:44;;;;;;;;;;;;;;;;;;;;;
2021/08/13 01:14:40;;;;;;;13.73;8.43;;;19.00;99.90;;;;;;6177254;22;20015;-92
2021/08/13 01:17:56;;;;;;;13.60;8.35;;;19.10;99.90;;;;;;6244122;23;20012;-92
2021/08/13 01:21:11;;;;;;;14.07;8.50;;;19.30;99.90;;;;;;6240948;23;20019;-93
2021/08/13 01:24:32;;;;;;;14.50;8.65;;;19.40;99.90;;;;;;6241213;23;20024;-93
2021/08/13 01:27:38;;;;;;;18.05;10.82;;;19.40;99.90;;;;;;6241083;23;20016;-92
2021/08/13 01:30:26;;;;;;;14.82;9.55;;;19.40;99.90;;;;;;6240880;23;20029;-92
2021/08/13 01:33:15;;;;;;;15.90;9.27;;;19.40;99.90;;;;;;6235825;23;20025;-95
2021/08/13 01:36:04;;;;;;;16.25;9.90;;;19.40;99.90;;;;;;6230766;23;20072;-92
2021/08/13 01:38:57;;;;;;;15.88;10.07;;;19.40;99.90;;;;;;6227636;23;20067;-92
2021/08/13 01:41:51;;;;;;;19.73;9.60;;;19.40;99.90;;;;;;6222401;23;20020;-95
2021/08/13 01:44:40;;;;;;;19.35;10.38;;;19.50;99.90;;;;;;6218084;23;20020;-95
2021/08/13 01:47:30;;;;;;;13.75;9.52;;;19.60;99.90;;;;;;6217124;23;20020;-94
2021/08/13 01:50:47;;;;;;;18.13;10.05;;;19.60;99.90;;;;;;6222295;23;20032;-94
2021/08/13 01:53:49;;;;;;;22.48;10.05;;;19.50;99.90;;;;;;6221565;23;20036;-93
2021/08/13 01:56:37;;;;;;;17.60;10.25;;;19.50;99.90;;;;;;6220005;23;20033;-92
2021/08/13 01:59:24;;;;;;;16.27;9.93;;;19.60;99.90;;;;;;6217298;23;20025;-93
2021/08/13 02:02:12;;;;;;;16.83;10.10;;;19.70;99.90;;;;;;6216638;23;20024;-92
2021/08/13 02:05:01;;;;;;;14.15;9.80;;;19.70;99.90;;;;;;6226494;23;20075;-94
2021/08/13 02:07:49;;;;;;;15.90;9.55;;;19.80;99.90;;;;;;6219815;23;20029;-92
2021/08/13 02:10:42;;;;;;;12.75;9.90;;;19.90;99.90;;;;;;6219440;23;20028;-94
2021/08/13 02:13:30;;;;;;;14.07;10.07;;;20.00;99.90;;;;;;6219754;23;20082;-95
2021/08/13 02:16:24;;;;;;;13.07;9.68;;;19.90;99.90;;;;;;6216367;23;20035;-91
2021/08/13 02:19:33;;;;;;;19.77;10.18;;;19.80;99.90;;;;;;6220535;23;20135;-92
2021/08/13 02:22:22;;;;;;;18.05;9.75;;;19.60;99.90;;;;;;6220330;23;20028;-93
2021/08/13 02:25:10;;;;;;;12.45;9.80;;;19.40;99.90;;;;;;6218281;23;20024;-93
2021/08/13 02:28:00;;;;;;;18.00;10.05;;;19.40;99.90;;;;;;6218464;23;20114;-92
2021/08/13 02:30:48;;;;;;;12.20;9.63;;;19.40;99.90;;;;;;6219731;23;20029;-93
2021/08/13 02:33:40;;;;;;;14.85;10.13;;;19.40;99.90;;;;;;6223675;23;20079;-92
2021/08/13 02:36:39;;;;;;;22.00;10.90;;;19.40;99.90;;;;;;6218244;23;20419;-93
2021/08/13 02:39:30;;;;;;;14.95;10.60;;;19.40;99.90;;;;;;6220394;23;20024;-93
2021/08/13 02:42:32;;;;;;;15.45;10.13;;;19.40;99.90;;;;;;6222598;23;20056;-92
2021/08/13 02:45:24;;;;;;;17.38;10.35;;;19.40;99.90;;;;;;6226083;23;20028;-92
2021/08/13 02:48:14;;;;;;;12.45;9.57;;;19.40;99.90;;;;;;6224698;23;20109;-93
2021/08/13 02:51:04;;;;;;;18.38;10.25;;;19.40;99.90;;;;;;6235685;23;20082;-93
2021/08/13 02:53:55;;;;;;;13.95;10.52;;;19.30;99.90;;;;;;6225663;23;20112;-93
2021/08/13 02:56:45;;;;;;;18.83;10.82;;;19.30;99.90;;;;;;6222105;23;20111;-93
2021/08/13 02:59:36;;;;;;;16.70;12.63;;;19.30;99.90;;;;;;6222171;23;20036;-93
2021/08/13 03:02:26;;;;;;;14.02;10.55;;;19.30;99.90;;;;;;6221743;23;20046;-92
2021/08/13 03:05:15;;;;;;;19.27;10.82;;;19.30;99.90;;;;;;6218559;23;20032;-92
2021/08/13 03:08:03;;;;;;;15.57;11.15;;;19.30;99.90;;;;;;6218262;23;20056;-92
2021/08/13 03:10:50;;;;;;;22.50;12.43;;;19.40;99.90;;;;;;6219390;23;20115;-91
2021/08/13 03:13:39;;;;;;;15.95;10.57;;;19.50;99.90;;;;;;6222198;23;20063;-92
2021/08/13 03:16:32;;;;;;;14.75;10.43;;;19.60;99.90;;;;;;6232727;23;20043;-94
2021/08/13 03:19:30;;;;;;;15.60;10.13;;;19.60;99.90;;;;;;6233286;23;20023;-93
2021/08/13 03:22:21;;;;;;;19.40;10.52;;;19.60;99.90;;;;;;6232036;23;20051;-95
2021/08/13 03:25:10;;;;;;;16.75;10.55;;;19.60;99.90;;;;;;6229308;23;20057;-92
2021/08/13 03:27:59;;;;;;;16.75;11.00;;;19.50;99.90;;;;;;6206726;23;20039;-93
2021/08/13 03:30:50;;;;;;;18.20;11.10;;;19.50;99.90;;;;;;6207285;23;20052;-93
2021/08/13 03:33:38;;;;;;;16.30;10.30;;;19.40;99.90;;;;;;6221080;23;20028;-92
2021/08/13 03:36:27;;;;;;;17.00;11.13;;;19.40;99.90;;;;;;6224641;23;20432;-93
2021/08/13 03:39:16;;;;;;;16.48;10.52;;;19.30;99.90;;;;;;6230938;23;20047;-94
2021/08/13 03:42:06;;;;;;;18.42;10.70;;;19.30;99.90;;;;;;6224970;23;20023;-93
2021/08/13 03:44:53;;;;;;;15.88;11.60;;;19.20;99.90;;;;;;6230322;23;20082;-92
2021/08/13 03:47:42;;;;;;;20.13;11.32;;;19.20;99.90;;;;;;6224375;23;20091;-93
2021/08/13 03:53:15;;;;;;;18.45;11.30;;;19.10;99.90;;;;;;6236191;22;20028;-94
2021/08/13 03:56:25;;;;;;;14.27;11.02;;;19.00;99.90;;;;;;6091255;23;20097;-95
2021/08/13 03:59:23;;;;;;;18.20;12.02;;;19.00;99.90;;;;;;6114224;23;20038;-92
2021/08/13 04:05:14;;;;;;;13.70;11.25;;;19.10;99.90;;;;;;6208725;22;20028;-89
2021/08/13 04:08:09;;;;;;;18.65;11.32;;;19.40;99.90;;;;;;6250600;22;20012;-92
2021/08/13 04:11:41;;;;;;;;;;;;;;;;;;;;;
2021/08/13 05:12:51;;;;;;;16.00;10.43;;;19.20;99.90;;;;;;6066629;23;20133;-89
2021/08/13 05:15:59;;;;;;;15.35;10.65;;;19.20;99.90;;;;;;6060735;23;20024;-89
2021/08/13 05:39:55;;;;;;;17.58;10.40;;;19.30;99.90;;;;;;6025295;23;20050;-89
2021/08/13 05:43:03;;;;;;;11.65;8.45;;;19.60;99.90;;;;;;6195003;23;20032;-90
2021/08/13 05:46:24;;;;;;;12.25;8.18;;;19.80;99.90;;;;;;6177868;23;20028;-88
2021/08/13 05:49:12;;;;;;;10.93;8.13;;;20.10;99.90;;;;;;6243309;23;20028;-88
2021/08/13 05:52:15;;;;;;;12.65;8.05;;;20.30;99.90;;;;;;6203283;23;20039;-89
2021/08/13 05:55:10;;;;;;;10.68;7.93;;;20.40;99.90;;;;;;6223350;23;20024;-87
2021/08/13 05:57:57;;;;;;;13.77;8.20;;;20.50;99.90;;;;;;6202033;23;20025;-89
2021/08/13 06:00:45;;;;;;;14.55;8.13;;;20.50;99.90;;;;;;6243516;23;20071;-88
2021/08/13 06:03:32;;;;;;;12.32;8.40;;;20.60;99.90;;;;;;6246620;22;20427;-89
2021/08/13 06:06:20;;;;;;;12.30;7.97;;;20.60;99.90;;;;;;6245943;23;20038;-89
2021/08/13 06:09:10;;;;;;;15.57;8.80;;;20.70;99.90;;;;;;6245029;23;20117;-91
2021/08/13 06:12:03;;;;;;;14.27;8.02;;;20.80;99.90;;;;;;6222981;23;20178;-88
2021/08/13 06:14:51;;;;;;;13.73;7.93;;;21.00;99.90;;;;;;6246873;23;20035;-88
2021/08/13 06:17:42;;;;;;;11.43;8.20;;;21.20;99.90;;;;;;6203917;23;20024;-89
2021/08/13 06:21:16;;;;;;;13.73;8.10;;;21.30;99.90;;;;;;6223617;23;20032;-89
2021/08/13 06:24:09;;;;;;;14.00;7.95;;;21.60;99.90;;;;;;6222571;23;20036;-89
2021/08/13 06:27:09;;;;;;;11.10;7.17;;;21.80;99.90;;;;;;6224745;23;20118;-89
2021/08/13 06:29:59;;;;;;;19.27;7.93;;;22.00;99.90;;;;;;6204943;23;20043;-90
2021/08/13 06:33:12;;;;;;;11.48;7.30;;;22.20;99.90;;;;;;6212280;23;20039;-89
2021/08/13 06:36:06;;;;;;;9.13;6.30;;;22.60;99.90;;;;;;6242349;23;20032;-88
2021/08/13 06:39:35;;;;;;;;;;;;;;;;;;;;;
2021/08/13 06:42:43;;;;;;;;;;;;;;;;;;;;;
2021/08/13 06:45:45;;;;;;;7.70;6.07;;;23.60;99.90;;;;;;6244194;23;20038;-90
2021/08/13 06:48:43;;;;;;;8.50;6.15;;;23.70;99.90;;;;;;6223763;23;20351;-90
2021/08/13 06:51:30;;;;;;;9.45;5.38;;;24.10;99.90;;;;;;6223352;23;20034;-89
2021/08/13 06:54:18;;;;;;;10.15;5.50;;;24.40;99.90;;;;;;6222654;23;20024;-90
2021/08/13 06:57:25;;;;;;;8.77;5.82;;;24.70;99.90;;;;;;6237386;23;20555;-91
2021/08/13 07:00:14;;;;;;;10.45;6.25;;;25.00;99.90;;;;;;6203084;23;20034;-89
2021/08/13 07:06:18;;;;;;;7.47;5.53;;;25.30;99.90;;;;;;6212572;23;20129;-88
2021/08/13 07:09:21;;;;;;;9.45;4.90;;;25.00;99.80;;;;;;6203849;23;20075;-90
2021/08/13 07:12:09;;;;;;;7.55;5.10;;;25.00;99.60;;;;;;6202870;23;20055;-87
2021/08/13 07:15:04;;;;;;;8.85;5.20;;;25.00;99.20;;;;;;6245074;23;20026;-85
2021/08/13 07:17:57;;;;;;;8.50;5.18;;;25.00;98.10;;;;;;6203691;23;20043;-89
2021/08/13 07:21:10;;;;;;;9.82;5.07;;;25.20;97.00;;;;;;6228375;23;20020;-88
2021/08/13 07:23:57;;;;;;;;;;;25.40;96.30;;;;;;6243472;23;20092;-88
2021/08/13 07:26:45;;;;;;;9.98;4.63;;;25.60;95.10;;;;;;6218540;23;19919;-88
2021/08/13 07:29:33;;;;;;;13.20;4.90;;;25.60;94.40;;;;;;6224126;23;20040;-90
2021/08/13 07:32:21;;;;;;;8.13;4.18;;;25.70;94.00;;;;;;6221843;23;20028;-90
2021/08/13 07:35:10;;;;;;;13.43;4.85;;;25.90;93.80;;;;;;6225606;23;20028;-87
2021/08/13 07:38:00;;;;;;;8.65;4.40;;;26.00;92.50;;;;;;6222333;23;20039;-92
2021/08/13 07:40:55;;;;;;;10.70;4.93;;;26.20;93.60;;;;;;6246252;23;20051;-88
2021/08/13 07:43:42;;;;;;;12.95;4.22;;;26.70;91.90;;;;;;6223728;23;20035;-90
2021/08/13 07:46:32;;;;;;;12.43;4.63;;;27.00;91.80;;;;;;6243757;22;20024;-88
2021/08/13 07:49:21;;;;;;;10.98;4.35;;;27.10;89.30;;;;;;6221101;23;20028;-90
2021/08/13 07:52:16;;;;;;;9.20;4.63;;;27.20;88.70;;;;;;6242676;23;20024;-91
2021/08/13 07:55:30;;;;;;;11.50;4.35;;;27.40;89.40;;;;;;6225451;23;20020;-92
2021/08/13 07:58:28;;;;;;;12.90;4.88;;;27.90;86.10;;;;;;6204858;23;20376;-90
2021/08/13 08:01:50;;;;;;;10.75;5.10;;;28.10;85.60;;;;;;6224088;23;20162;-91
2021/08/13 08:04:38;;;;;;;;;;;28.10;82.20;;;;;;6228953;22;20449;-90
2021/08/13 08:07:28;;;;;;;15.52;4.90;;;27.90;85.70;;;;;;6223488;23;19924;-88
2021/08/13 08:10:18;;;;;;;11.95;4.90;;;28.10;84.90;;;;;;6243473;23;20047;-88
2021/08/13 08:13:19;;;;;;;10.75;5.00;;;28.40;83.10;;;;;;6221592;23;20096;-90
2021/08/13 08:16:07;;;;;;;10.45;4.97;;;28.40;82.80;;;;;;6224153;23;20020;-89
2021/08/13 08:19:03;;;;;;;11.65;4.68;;;28.00;84.80;;;;;;6224926;23;20028;-92
2021/08/13 08:21:50;;;;;;;12.10;5.15;;;28.40;84.50;;;;;;6224308;23;20099;-89
2021/08/13 08:24:40;;;;;;;7.72;4.90;;;28.90;81.70;;;;;;6222977;23;20028;-91
2021/08/13 08:27:27;;;;;;;11.13;4.82;;;28.60;82.20;;;;;;6223871;23;20063;-92
2021/08/13 08:30:16;;;;;;;8.82;5.28;;;28.20;84.10;;;;;;6247981;22;20028;-90
2021/08/13 08:33:07;;;;;;;8.48;4.95;;;28.20;84.20;;;;;;6244056;23;20418;-91
2021/08/13 08:35:54;;;;;;;9.60;4.68;;;28.50;84.20;;;;;;6222091;23;20024;-90
2021/08/13 08:38:42;;;;;;;12.20;5.15;;;29.00;82.20;;;;;;6225371;23;20021;-90
2021/08/13 08:41:30;;;;;;;11.20;4.97;;;29.40;78.80;;;;;;6226373;23;20117;-90
2021/08/13 08:44:18;;;;;;;11.40;4.55;;;29.30;79.40;;;;;;6248811;23;20050;-89
2021/08/13 08:47:09;;;;;;;13.55;4.90;;;28.70;81.00;;;;;;6227092;23;20050;-89
2021/08/13 08:49:57;;;;;;;12.52;4.88;;;28.80;81.00;;;;;;6237123;22;20032;-89
2021/08/13 08:52:48;;;;;;;12.35;5.32;;;29.30;79.80;;;;;;6219932;23;20012;-89
2021/08/13 08:55:38;;;;;;;9.68;4.97;;;29.70;78.80;;;;;;6244633;23;20030;-87
2021/08/13 08:58:35;;;;;;;9.25;4.30;;;29.60;77.80;;;;;;6248319;23;20027;-89
2021/08/13 09:01:25;;;;;;;17.23;5.50;;;29.80;77.90;;;;;;6245530;23;20030;-91
2021/08/13 09:04:13;;;;;;;7.65;4.72;;;30.70;75.60;;;;;;6226969;22;20075;-88
2021/08/13 09:07:05;;;;;;;;;;;31.20;71.80;;;;;;6250086;23;20031;-89
2021/08/13 09:09:53;;;;;;;11.27;4.88;;;30.90;72.50;;;;;;6244892;23;19934;-88
2021/08/13 09:12:42;;;;;;;9.25;5.03;;;30.90;72.90;;;;;;6239788;23;20032;-86
2021/08/13 09:15:35;;;;;;;11.10;4.72;;;30.90;71.90;;;;;;6250522;23;20020;-87
2021/08/13 09:18:24;;;;;;;8.32;4.32;;;31.00;71.90;;;;;;6228931;23;20028;-88
2021/08/13 09:21:21;;;;;;;8.65;4.80;;;31.50;70.40;;;;;;6223809;23;20020;-87
2021/08/13 09:24:11;;;;;;;8.55;4.93;;;31.70;67.80;;;;;;6230022;23;20024;-88
2021/08/13 09:27:21;;;;;;;9.93;4.80;;;32.20;67.00;;;;;;6228352;22;20032;-88
2021/08/13 09:30:17;;;;;;;9.40;4.47;;;32.20;65.20;;;;;;6222676;23;20032;-87
2021/08/13 09:33:05;;;;;;;10.48;4.85;;;32.10;64.80;;;;;;6224651;23;20031;-89
2021/08/13 09:36:01;;;;;;;11.95;5.05;;;32.20;64.60;;;;;;6223850;23;20020;-92
2021/08/13 09:39:20;;;;;;;11.18;5.00;;;32.40;63.30;;;;;;6222767;23;20114;-90
2021/08/13 09:42:11;;;;;;;8.95;5.18;;;32.60;63.40;;;;;;6198707;23;20028;-85
2021/08/13 09:45:04;;;;;;;10.32;4.85;;;32.60;62.90;;;;;;6223848;23;20035;-88
2021/08/13 09:47:54;;;;;;;6.85;4.47;;;32.70;63.40;;;;;;6223230;23;20024;-92
2021/08/13 09:50:42;;;;;;;11.02;4.85;;;33.20;66.10;;;;;;6223883;23;20040;-90
2021/08/13 09:53:29;;;;;;;10.90;4.38;;;34.10;58.40;;;;;;6203847;23;20032;-92
2021/08/13 09:56:29;;;;;;;8.65;4.30;;;33.50;58.60;;;;;;6222420;23;20035;-89
2021/08/13 09:59:21;;;;;;;8.90;4.80;;;33.00;59.00;;;;;;6220904;23;20371;-90
2021/08/13 10:02:13;;;;;;;9.90;4.45;;;33.00;60.30;;;;;;6243556;23;20039;-89
2021/08/13 10:05:18;;;;;;;12.55;4.95;;;32.60;59.50;;;;;;6243447;23;20082;-90
2021/08/13 10:08:07;;;;;;;9.00;4.32;;;32.80;59.80;;;;;;6221075;23;20035;-88
2021/08/13 10:11:09;;;;;;;11.43;5.28;;;32.50;59.90;;;;;;6243963;23;20036;-90
2021/08/13 10:13:56;;;;;;;10.73;5.03;;;32.60;61.30;;;;;;6242725;23;20445;-91
2021/08/13 10:16:44;;;;;;;9.20;4.35;;;33.60;58.50;;;;;;6221787;23;20323;-91
2021/08/13 10:19:31;;;;;;;11.93;5.03;;;33.50;59.10;;;;;;6221852;23;20395;-88
2021/08/13 10:22:21;;;;;;;10.00;4.85;;;33.70;57.90;;;;;;6223897;23;20415;-91
2021/08/13 10:25:13;;;;;;;9.82;5.03;;;33.50;57.60;;;;;;6222759;23;20050;-89
2021/08/13 10:28:01;;;;;;;8.40;4.97;;;33.10;57.80;;;;;;6222751;23;20039;-89
2021/08/13 10:30:53;;;;;;;10.13;5.22;;;32.60;58.10;;;;;;6242217;23;20035;-89
2021/08/13 10:33:41;;;;;;;12.80;5.40;;;32.10;59.40;;;;;;6223067;23;20024;-93
2021/08/13 10:36:31;;;;;;;14.82;6.25;;;31.40;61.10;;;;;;6201490;23;20086;-87
2021/08/13 10:39:20;;;;;;;13.63;6.22;;;30.90;62.30;;;;;;6203831;23;20035;-89
2021/08/13 10:42:14;;;;;;;10.27;5.57;;;30.50;64.30;;;;;;6223222;23;20043;-88
2021/08/13 10:45:08;;;;;;;10.35;5.53;;;30.80;65.70;;;;;;6227693;23;20024;-88
2021/08/13 10:48:08;;;;;;;10.95;6.10;;;31.40;62.40;;;;;;6224019;23;20111;-88
2021/08/13 10:50:58;;;;;;;11.82;5.53;;;31.10;61.80;;;;;;6231808;23;20034;-89
2021/08/13 10:53:48;;;;;;;9.45;5.82;;;31.30;59.60;;;;;;6230971;23;20031;-91
2021/08/13 10:56:40;;;;;;;9.88;5.35;;;31.30;61.90;;;;;;6246505;23;20031;-89
2021/08/13 10:59:54;;;;;;;13.27;5.90;;;32.10;58.60;;;;;;6211983;23;20036;-94
2021/08/13 11:03:21;;;;;;;12.23;5.13;;;33.10;64.20;;;;;;6221872;23;20032;-91
2021/08/13 11:06:11;;;;;;;9.90;4.70;;;35.50;58.20;;;;;;6020819;23;20027;-93
2021/08/13 11:08:59;;;;;;;8.65;4.57;;;36.90;53.60;;;;;;6025307;23;20035;-93
2021/08/13 11:12:16;;;;;;;6.93;4.13;;;38.20;50.50;;;;;;6206937;23;20032;-92
2021/08/13 11:15:05;;;;;;;7.18;4.95;;;37.70;51.40;;;;;;6215681;23;20024;-90
2021/08/13 11:17:55;;;;;;;7.80;4.90;;;36.40;52.60;;;;;;6197496;23;20033;-91
2021/08/13 11:20:45;;;;;;;9.45;4.97;;;35.60;54.20;;;;;;6222174;23;20123;-89
2021/08/13 11:23:57;;;;;;;7.03;4.97;;;34.50;58.60;;;;;;6217197;23;20031;-91
2021/08/13 11:26:49;;;;;;;6.78;5.10;;;33.60;58.10;;;;;;6223007;23;20344;-90
2021/08/13 11:29:42;;;;;;;11.85;5.93;;;32.80;59.50;;;;;;6216766;23;20419;-91
2021/08/13 11:32:35;;;;;;;8.73;5.45;;;32.30;63.40;;;;;;6200029;23;20425;-91
2021/08/13 11:35:37;;;;;;;9.05;5.40;;;32.30;64.40;;;;;;6175698;23;20024;-91
2021/08/13 11:38:43;;;;;;;18.40;5.97;;;32.50;59.70;;;;;;6176037;23;20039;-89
2021/08/13 11:41:30;;;;;;;12.70;5.53;;;32.40;63.10;;;;;;6195662;23;20134;-90
2021/08/13 11:44:21;;;;;;;8.27;5.60;;;32.40;63.10;;;;;;6202198;23;20033;-91
2021/08/13 11:47:09;;;;;;;8.18;5.25;;;32.30;62.60;;;;;;6215371;23;20025;-91
2021/08/13 11:49:57;;;;;;;11.05;5.35;;;33.10;64.20;;;;;;6201229;23;20028;-92
2021/08/13 11:52:46;;;;;;;8.00;5.32;;;34.80;60.20;;;;;;6222986;23;20055;-92
2021/08/13 11:55:38;;;;;;;11.98;5.00;;;36.40;55.10;;;;;;6222105;23;20075;-92
2021/08/13 11:58:26;;;;;;;6.60;4.55;;;37.80;53.40;;;;;;6190081;23;20035;-93
2021/08/13 12:01:16;;;;;;;6.97;4.70;;;39.20;49.50;;;;;;6235491;23;20028;-92
2021/08/13 12:04:21;;;;;;;14.15;5.20;;;39.50;48.10;;;;;;6250965;23;20052;-92
2021/08/13 12:07:10;;;;;;;7.25;4.78;;;38.50;48.50;;;;;;6226824;23;20038;-91
2021/08/13 12:10:07;;;;;;;8.93;5.13;;;38.00;50.10;;;;;;6222891;23;20078;-90
2021/08/13 12:13:13;;;;;;;8.98;5.38;;;37.30;50.80;;;;;;6245410;23;20051;-90
2021/08/13 12:16:03;;;;;;;6.93;5.15;;;36.40;53.40;;;;;;6226578;23;20046;-90
2021/08/13 12:18:55;;;;;;;11.68;5.93;;;36.10;52.70;;;;;;6235195;23;20035;-92
2021/08/13 12:21:53;;;;;;;8.40;6.18;;;35.30;55.30;;;;;;6230584;23;20072;-90
2021/08/13 12:24:48;;;;;;;14.50;6.10;;;34.50;55.50;;;;;;6229322;23;20039;-91
2021/08/13 12:27:40;;;;;;;14.52;6.22;;;33.30;59.20;;;;;;6247044;23;20028;-91
2021/08/13 12:30:50;;;;;;;12.13;6.63;;;32.90;62.10;;;;;;6216414;23;20024;-91
2021/08/13 12:33:51;;;;;;;13.60;6.20;;;32.60;58.30;;;;;;6245423;23;20031;-92
2021/08/13 12:37:15;;;;;;;7.60;5.50;;;32.20;62.40;;;;;;6231925;23;20031;-92
2021/08/13 12:40:15;;;;;;;16.90;7.22;;;32.20;59.60;;;;;;6184345;23;20024;-95
2021/08/13 12:43:10;;;;;;;19.83;6.63;;;32.90;60.90;;;;;;6226682;23;20048;-92
2021/08/13 12:46:20;;;;;;;;;;;;;;;;;;;;;
2021/08/13 12:49:27;;;;;;;8.10;6.15;;;34.00;55.60;;;;;;6154322;23;20489;-91
2021/08/13 12:52:42;;;;;;;;;;;;;;;;;;;;;
2021/08/13 12:55:45;;;;;;;11.65;6.20;;;32.90;57.50;;;;;;6100227;23;20033;-92
2021/08/13 12:58:38;;;;;;;11.30;5.65;;;33.30;56.10;;;;;;6096976;23;20437;-92
2021/08/13 13:02:23;;;;;;;12.88;6.57;;;33.50;56.80;;;;;;6097380;23;20037;-94
2021/08/13 13:19:43;;;;;;;12.40;6.40;;;34.90;59.00;;;;;;6220692;22;20024;-93
2021/08/13 13:23:13;;;;;;;12.38;6.50;;;36.00;56.30;;;;;;6183884;23;20082;-94
2021/08/13 13:26:15;;;;;;;9.30;5.65;;;37.10;49.30;;;;;;6218604;23;20106;-94
2021/08/13 13:29:10;;;;;;;9.48;5.82;;;36.50;49.20;;;;;;6197501;23;20311;-92
2021/08/13 13:32:16;;;;;;;10.70;6.82;;;35.50;53.30;;;;;;6201771;23;20476;-95
2021/08/13 13:35:07;;;;;;;14.63;6.32;;;34.40;54.00;;;;;;6224671;23;20031;-93
2021/08/13 13:38:09;;;;;;;11.57;5.57;;;34.20;58.60;;;;;;6223602;23;20093;-93
2021/08/13 13:41:20;;;;;;;9.55;6.05;;;33.90;58.30;;;;;;6213059;23;20115;-93
2021/08/13 13:44:25;;;;;;;11.38;6.43;;;34.00;58.90;;;;;;6212030;22;20063;-93
2021/08/13 13:47:27;;;;;;;9.57;5.47;;;35.40;56.00;;;;;;6238383;22;20025;-94
2021/08/13 13:50:18;;;;;;;11.98;6.35;;;36.50;53.20;;;;;;6240547;22;20043;-94
2021/08/13 13:53:19;;;;;;;11.18;6.35;;;36.30;53.10;;;;;;6220429;22;20009;-93
2021/08/13 13:56:37;;;;;;;10.35;5.93;;;35.60;55.10;;;;;;6219409;22;20028;-93
2021/08/13 13:59:35;;;;;;;9.85;5.80;;;34.30;56.90;;;;;;6221067;22;20008;-93
2021/08/13 14:14:01;;;;;;;11.30;6.18;;;34.10;58.00;;;;;;6170817;23;20026;-92
2021/08/13 14:17:01;;;;;;;7.05;5.28;;;34.00;58.50;;;;;;6073706;23;20031;-92
2021/08/13 14:20:46;;;;;;;9.60;5.75;;;33.60;57.70;;;;;;6005445;23;20082;-93
2021/08/13 14:23:59;;;;;;;9.80;5.65;;;33.10;57.20;;;;;;6103196;23;20031;-93
2021/08/13 14:31:05;;;;;;;;;;;;;;;;;;;;;
2021/08/13 14:41:39;;;;;;;7.63;4.88;;;35.70;54.60;;;;;;6076031;23;20390;-94
2021/08/13 14:44:47;;;;;;;9.40;4.95;;;37.30;45.80;;;;;;6120913;23;20168;-94
2021/08/13 14:47:37;;;;;;;12.15;5.18;;;37.40;43.90;;;;;;6127835;23;20196;-92
2021/08/13 14:54:00;;;;;;;11.63;4.88;;;37.80;41.40;;;;;;6087342;23;20674;-93
2021/08/13 14:57:08;;;;;;;8.60;4.78;;;38.70;40.50;;;;;;6087759;23;20014;-94
2021/08/13 14:59:56;;;;;;;6.03;4.47;;;39.60;38.30;;;;;;6062699;23;20027;-94
2021/08/13 15:02:48;;;;;;;10.07;5.05;;;38.10;39.10;;;;;;6078443;23;20026;-92
2021/08/13 15:05:41;;;;;;;;;;;36.90;40.70;;;;;;6059942;23;20055;-92
2021/08/13 15:08:28;;;;;;;7.50;4.30;;;36.70;41.30;;;;;;6145173;23;19994;-92
2021/08/13 15:11:18;;;;;;;11.90;4.53;;;37.40;39.30;;;;;;6139075;23;20036;-89
2021/08/13 15:14:10;;;;;;;8.70;4.05;;;37.90;38.10;;;;;;6157439;23;20025;-92
2021/08/13 15:17:01;;;;;;;11.70;4.85;;;37.90;38.60;;;;;;6152259;23;20029;-93
2021/08/13 15:19:55;;;;;;;6.72;4.53;;;37.40;40.00;;;;;;6155328;23;20073;-93
2021/08/13 15:22:43;;;;;;;7.72;4.38;;;37.10;42.50;;;;;;6157103;23;20021;-92
2021/08/13 15:25:30;;;;;;;10.98;4.90;;;37.40;39.80;;;;;;6113977;23;20036;-91
2021/08/13 15:28:20;;;;;;;8.13;4.80;;;36.70;40.70;;;;;;6229772;23;20327;-92
2021/08/13 15:31:08;;;;;;;7.38;5.07;;;36.20;42.20;;;;;;6245407;23;20036;-92
2021/08/13 15:33:56;;;;;;;8.55;5.22;;;36.30;42.20;;;;;;6243394;23;20043;-90
2021/08/13 15:36:43;;;;;;;7.28;4.72;;;35.50;43.20;;;;;;6223923;23;20051;-90
2021/08/13 15:39:30;;;;;;;7.20;5.53;;;35.20;43.70;;;;;;6244046;23;20028;-91
2021/08/13 15:42:19;;;;;;;7.60;5.65;;;34.50;46.10;;;;;;6250413;22;20383;-93
2021/08/13 15:45:07;;;;;;;8.98;5.38;;;33.60;48.10;;;;;;6245023;23;20025;-92
2021/08/13 15:47:55;;;;;;;9.60;5.80;;;32.90;50.30;;;;;;6205080;23;20424;-92
2021/08/13 15:50:43;;;;;;;11.73;5.55;;;33.40;49.60;;;;;;6246843;23;20054;-93
2021/08/13 15:53:31;;;;;;;10.27;5.53;;;34.60;48.50;;;;;;6247574;23;20035;-94
2021/08/13 15:56:20;;;;;;;8.63;5.30;;;35.60;48.70;;;;;;6232580;23;20020;-93
2021/08/13 15:59:44;;;;;;;10.75;5.10;;;36.40;47.30;;;;;;6253130;23;20086;-93
2021/08/13 16:02:54;;;;;;;8.80;5.13;;;36.80;48.10;;;;;;6232632;23;20031;-93
2021/08/13 16:05:54;;;;;;;7.78;5.85;;;36.30;48.80;;;;;;6253605;23;20290;-93
2021/08/13 16:08:59;;;;;;;8.60;5.53;;;36.50;47.70;;;;;;6248416;23;20040;-93
2021/08/13 16:12:12;;;;;;;7.15;5.57;;;36.50;48.10;;;;;;6250565;23;20027;-94
2021/08/13 16:15:04;;;;;;;9.05;5.38;;;36.70;47.20;;;;;;6251962;23;20020;-93
2021/08/13 16:17:52;;;;;;;12.45;5.78;;;35.70;48.30;;;;;;6229622;23;20024;-93
2021/08/13 16:20:40;;;;;;;9.25;5.70;;;35.00;50.20;;;;;;6228228;23;20335;-92
2021/08/13 16:23:51;;;;;;;;;;;;;;;;;;;;;
2021/08/13 16:27:36;;;;;;;;;;;;;;;;;;;;;
2021/08/13 16:31:10;;;;;;;;;;;;;;;;;;;;;
2021/08/13 16:39:24;;;;;;;11.13;6.57;;;32.20;56.80;;;;;;5910094;24;20111;-93
2021/08/13 16:42:32;;;;;;;16.00;6.78;;;30.90;60.40;;;;;;5857186;24;20026;-93
2021/08/13 16:48:37;;;;;;;11.93;6.50;;;30.30;64.80;;;;;;5908268;24;20129;-92
2021/08/13 16:52:14;;;;;;;;;;;;;;;;;;;;;
2021/08/13 16:55:19;;;;;;;10.48;6.35;;;30.00;62.50;;;;;;5951909;23;20020;-92
2021/08/13 16:58:11;;;;;;;11.77;6.05;;;29.60;64.50;;;;;;6057210;23;20037;-92
2021/08/13 17:01:35;;;;;;;13.13;6.13;;;29.30;65.00;;;;;;6117600;23;20069;-93
2021/08/13 17:04:49;;;;;;;10.67;6.07;;;28.90;67.20;;;;;;6116541;23;20044;-93
2021/08/13 17:07:43;;;;;;;9.93;6.45;;;28.50;68.70;;;;;;6156609;23;20042;-92
2021/08/13 17:11:26;;;;;;;;;;;;;;;;;;;;;
2021/08/13 17:18:43;;;;;;;12.23;6.32;;;27.90;69.80;;;;;;6259374;22;20020;-92
2021/08/13 17:21:40;;;;;;;14.57;6.45;;;27.90;70.40;;;;;;6235267;23;20016;-92
2021/08/13 17:24:47;;;;;;;15.10;6.40;;;27.60;72.60;;;;;;6249752;23;20024;-93
2021/08/13 17:27:45;;;;;;;10.13;6.25;;;27.50;72.20;;;;;;6250234;23;20052;-93
2021/08/13 17:30:54;;;;;;;;;;;;;;;;;;;;;
2021/08/13 17:33:42;;;;;;;9.50;6.75;;;27.20;74.90;;;;;;6250875;23;20447;-92
2021/08/13 17:37:29;;;;;;;10.75;6.75;;;27.00;75.40;;;;;;6226452;23;20073;-91
2021/08/13 17:44:31;;;;;;;12.35;7.25;;;26.70;78.60;;;;;;6146899;23;20085;-95
2021/08/13 17:47:40;;;;;;;13.30;6.55;;;26.60;79.70;;;;;;6147864;23;20145;-93
2021/08/13 17:51:13;;;;;;;;;;;;;;;;;;;;;
2021/08/13 17:58:35;;;;;;;12.20;7.15;;;26.10;81.90;;;;;;6232458;22;20050;-94
2021/08/13 18:01:36;;;;;;;12.45;7.22;;;25.90;82.90;;;;;;6257624;22;20016;-93
2021/08/13 18:07:28;;;;;;;11.57;7.78;;;25.80;83.60;;;;;;6265464;22;20011;-88
2021/08/13 18:21:10;;;;;;;;;;;;;;;;;;;;;
2021/08/13 18:24:15;;;;;;;11.68;6.38;;;25.20;86.30;;;;;;6057680;23;20138;-92
2021/08/13 18:27:56;;;;;;;16.92;7.20;;;25.10;88.00;;;;;;6128152;23;20037;-94
2021/08/13 18:31:07;;;;;;;11.07;6.85;;;24.90;87.80;;;;;;6013180;23;20169;-91
2021/08/13 18:33:56;;;;;;;11.75;7.13;;;24.70;88.70;;;;;;6038713;23;20040;-93
2021/08/13 18:36:45;;;;;;;10.15;7.00;;;24.60;90.00;;;;;;6036746;23;20023;-93
2021/08/13 18:39:36;;;;;;;14.75;7.18;;;24.50;90.50;;;;;;6038091;23;20027;-93
2021/08/13 18:42:23;;;;;;;10.40;6.50;;;24.40;90.70;;;;;;6037918;23;20415;-91
2021/08/13 18:45:13;;;;;;;15.30;7.53;;;24.30;92.00;;;;;;6047924;23;20074;-93
2021/08/13 18:48:03;;;;;;;11.38;7.43;;;24.10;92.20;;;;;;6050555;23;20031;-92
2021/08/13 18:50:51;;;;;;;13.57;7.40;;;24.00;92.10;;;;;;6138050;23;20053;-90
2021/08/13 18:53:38;;;;;;;11.60;6.78;;;23.90;92.80;;;;;;6145811;23;20010;-92
2021/08/13 18:56:29;;;;;;;10.68;6.85;;;23.70;93.10;;;;;;6139607;23;20097;-93
2021/08/13 18:59:17;;;;;;;8.45;6.57;;;23.70;93.40;;;;;;6140859;23;20381;-93
2021/08/13 19:02:05;;;;;;;11.43;7.00;;;23.60;93.60;;;;;;6242414;23;20055;-91
2021/08/13 19:04:52;;;;;;;12.68;7.55;;;23.50;94.00;;;;;;6228307;23;20438;-93
2021/08/13 19:07:39;;;;;;;20.85;7.78;;;23.40;94.20;;;;;;6186062;23;20035;-94